sensor_id;sensor_type;location;lat;lon;timestamp;P1;durP1;ratioP1;P2;durP2;ratioP2
4466;SDS011;2246;42.664;23.278;2023-04-29T00:02:19;10.98;;;4.47;;
4466;SDS011;2246;42.664;23.278;2023-04-29T00:04:45;8.13;;;4.50;;
4466;SDS011;2246;42.664;23.278;2023-04-29T00:07:11;9.40;;;4.75;;
4466;SDS011;2246;42.664;23.278;2023-04-29T00:09:40;13.90;;;5.57;;
4466;SDS011;2246;42.664;23.278;2023-04-29T00:12:06;9.05;;;4.93;;
4466;SDS011;2246;42.664;23.278;2023-04-29T00:14:32;11.93;;;5.40;;
4466;SDS011;2246;42.664;23.278;2023-04-29T00:16:58;11.68;;;5.65;;
4466;SDS011;2246;42.664;23.278;2023-04-29T00:19:24;13.32;;;5.93;;
4466;SDS011;2246;42.664;23.278;2023-04-29T00:21:50;8.65;;;5.57;;
4466;SDS011;2246;42.664;23.278;2023-04-29T00:24:18;9.20;;;5.13;;
4466;SDS011;2246;42.664;23.278;2023-04-29T00:26:44;14.38;;;5.93;;
4466;SDS011;2246;42.664;23.278;2023-04-29T00:29:10;16.52;;;6.13;;
4466;SDS011;2246;42.664;23.278;2023-04-29T00:31:37;12.20;;;6.05;;
4466;SDS011;2246;42.664;23.278;2023-04-29T00:34:03;11.30;;;6.35;;
4466;SDS011;2246;42.664;23.278;2023-04-29T00:36:29;11.32;;;6.28;;
4466;SDS011;2246;42.664;23.278;2023-04-29T00:38:56;13.40;;;5.80;;
4466;SDS011;2246;42.664;23.278;2023-04-29T00:41:23;13.55;;;6.07;;
4466;SDS011;2246;42.664;23.278;2023-04-29T00:43:50;11.93;;;6.28;;
4466;SDS011;2246;42.664;23.278;2023-04-29T00:46:16;13.35;;;6.05;;
4466;SDS011;2246;42.664;23.278;2023-04-29T00:48:42;13.43;;;5.47;;
4466;SDS011;2246;42.664;23.278;2023-04-29T00:51:09;11.70;;;5.72;;
4466;SDS011;2246;42.664;23.278;2023-04-29T00:53:36;15.88;;;5.75;;
4466;SDS011;2246;42.664;23.278;2023-04-29T00:56:02;10.57;;;5.13;;
4466;SDS011;2246;42.664;23.278;2023-04-29T00:58:28;13.55;;;5.80;;
4466;SDS011;2246;42.664;23.278;2023-04-29T01:00:58;15.25;;;5.38;;
4466;SDS011;2246;42.664;23.278;2023-04-29T01:03:25;11.32;;;5.40;;
4466;SDS011;2246;42.664;23.278;2023-04-29T01:05:53;12.68;;;5.38;;
4466;SDS011;2246;42.664;23.278;2023-04-29T01:08:33;10.93;;;4.97;;
4466;SDS011;2246;42.664;23.278;2023-04-29T01:11:08;11.13;;;5.75;;
4466;SDS011;2246;42.664;23.278;2023-04-29T01:13:57;12.32;;;5.10;;
4466;SDS011;2246;42.664;23.278;2023-04-29T01:18:54;15.18;;;5.43;;
4466;SDS011;2246;42.664;23.278;2023-04-29T01:21:23;8.48;;;4.72;;
4466;SDS011;2246;42.664;23.278;2023-04-29T01:23:50;10.32;;;5.43;;
4466;SDS011;2246;42.664;23.278;2023-04-29T01:26:20;10.43;;;5.10;;
4466;SDS011;2246;42.664;23.278;2023-04-29T01:28:53;13.98;;;5.45;;
4466;SDS011;2246;42.664;23.278;2023-04-29T01:31:40;14.93;;;5.75;;
4466;SDS011;2246;42.664;23.278;2023-04-29T01:39:55;11.38;;;5.75;;
4466;SDS011;2246;42.664;23.278;2023-04-29T01:44:49;15.18;;;5.57;;
4466;SDS011;2246;42.664;23.278;2023-04-29T01:47:16;12.68;;;5.57;;
4466;SDS011;2246;42.664;23.278;2023-04-29T01:49:42;10.35;;;5.80;;
4466;SDS011;2246;42.664;23.278;2023-04-29T01:54:36;10.98;;;5.78;;
4466;SDS011;2246;42.664;23.278;2023-04-29T01:57:03;12.60;;;5.35;;
4466;SDS011;2246;42.664;23.278;2023-04-29T01:59:29;9.00;;;5.50;;
4466;SDS011;2246;42.664;23.278;2023-04-29T02:01:55;9.57;;;5.35;;
4466;SDS011;2246;42.664;23.278;2023-04-29T02:04:23;10.60;;;4.47;;
4466;SDS011;2246;42.664;23.278;2023-04-29T02:06:49;11.75;;;5.10;;
4466;SDS011;2246;42.664;23.278;2023-04-29T02:09:18;11.13;;;4.90;;
4466;SDS011;2246;42.664;23.278;2023-04-29T02:11:44;10.07;;;4.53;;
4466;SDS011;2246;42.664;23.278;2023-04-29T02:14:10;10.25;;;4.82;;
4466;SDS011;2246;42.664;23.278;2023-04-29T02:16:36;12.45;;;4.13;;
4466;SDS011;2246;42.664;23.278;2023-04-29T02:19:02;10.35;;;4.53;;
4466;SDS011;2246;42.664;23.278;2023-04-29T02:21:28;12.23;;;5.35;;
4466;SDS011;2246;42.664;23.278;2023-04-29T02:23:55;10.45;;;5.40;;
4466;SDS011;2246;42.664;23.278;2023-04-29T02:26:22;13.20;;;4.80;;
4466;SDS011;2246;42.664;23.278;2023-04-29T02:28:48;8.65;;;4.30;;
4466;SDS011;2246;42.664;23.278;2023-04-29T02:33:42;8.68;;;4.45;;
4466;SDS011;2246;42.664;23.278;2023-04-29T02:36:08;9.70;;;5.25;;
4466;SDS011;2246;42.664;23.278;2023-04-29T02:38:34;11.23;;;5.00;;
4466;SDS011;2246;42.664;23.278;2023-04-29T02:41:00;11.70;;;4.68;;
4466;SDS011;2246;42.664;23.278;2023-04-29T02:43:26;14.77;;;5.07;;
4466;SDS011;2246;42.664;23.278;2023-04-29T02:45:55;15.15;;;5.10;;
4466;SDS011;2246;42.664;23.278;2023-04-29T02:48:21;10.30;;;5.03;;
4466;SDS011;2246;42.664;23.278;2023-04-29T02:50:47;12.45;;;5.35;;
4466;SDS011;2246;42.664;23.278;2023-04-29T02:53:13;12.27;;;5.30;;
4466;SDS011;2246;42.664;23.278;2023-04-29T02:55:40;21.35;;;5.35;;
4466;SDS011;2246;42.664;23.278;2023-04-29T02:58:07;13.98;;;5.13;;
4466;SDS011;2246;42.664;23.278;2023-04-29T03:00:33;8.50;;;4.68;;
4466;SDS011;2246;42.664;23.278;2023-04-29T03:02:59;14.02;;;4.95;;
4466;SDS011;2246;42.664;23.278;2023-04-29T03:05:25;11.20;;;4.85;;
4466;SDS011;2246;42.664;23.278;2023-04-29T03:07:51;17.40;;;5.50;;
4466;SDS011;2246;42.664;23.278;2023-04-29T03:10:17;16.50;;;5.28;;
4466;SDS011;2246;42.664;23.278;2023-04-29T03:12:43;17.65;;;5.03;;
4466;SDS011;2246;42.664;23.278;2023-04-29T03:15:09;10.73;;;5.18;;
4466;SDS011;2246;42.664;23.278;2023-04-29T03:17:36;15.32;;;5.22;;
4466;SDS011;2246;42.664;23.278;2023-04-29T03:20:03;12.20;;;5.35;;
4466;SDS011;2246;42.664;23.278;2023-04-29T03:22:29;17.52;;;5.35;;
4466;SDS011;2246;42.664;23.278;2023-04-29T03:24:55;10.75;;;5.60;;
4466;SDS011;2246;42.664;23.278;2023-04-29T03:27:21;14.93;;;5.68;;
4466;SDS011;2246;42.664;23.278;2023-04-29T03:29:47;13.07;;;6.13;;
4466;SDS011;2246;42.664;23.278;2023-04-29T03:32:13;18.40;;;6.22;;
4466;SDS011;2246;42.664;23.278;2023-04-29T03:34:39;13.65;;;6.70;;
4466;SDS011;2246;42.664;23.278;2023-04-29T03:37:05;13.10;;;6.72;;
4466;SDS011;2246;42.664;23.278;2023-04-29T03:39:32;13.37;;;6.53;;
4466;SDS011;2246;42.664;23.278;2023-04-29T03:41:58;14.38;;;6.70;;
4466;SDS011;2246;42.664;23.278;2023-04-29T03:44:25;13.63;;;6.60;;
4466;SDS011;2246;42.664;23.278;2023-04-29T03:46:53;12.05;;;6.20;;
4466;SDS011;2246;42.664;23.278;2023-04-29T03:49:19;18.80;;;7.43;;
4466;SDS011;2246;42.664;23.278;2023-04-29T03:51:45;12.15;;;7.07;;
4466;SDS011;2246;42.664;23.278;2023-04-29T03:54:11;14.23;;;6.70;;
4466;SDS011;2246;42.664;23.278;2023-04-29T03:56:38;12.20;;;6.70;;
4466;SDS011;2246;42.664;23.278;2023-04-29T03:59:05;14.53;;;6.63;;
4466;SDS011;2246;42.664;23.278;2023-04-29T04:01:31;19.52;;;6.35;;
4466;SDS011;2246;42.664;23.278;2023-04-29T04:03:57;11.68;;;5.90;;
4466;SDS011;2246;42.664;23.278;2023-04-29T04:06:23;11.20;;;6.40;;
4466;SDS011;2246;42.664;23.278;2023-04-29T04:08:50;17.77;;;6.40;;
4466;SDS011;2246;42.664;23.278;2023-04-29T04:11:16;11.48;;;6.05;;
4466;SDS011;2246;42.664;23.278;2023-04-29T04:13:42;17.58;;;6.45;;
4466;SDS011;2246;42.664;23.278;2023-04-29T04:16:08;13.25;;;6.35;;
4466;SDS011;2246;42.664;23.278;2023-04-29T04:18:35;16.52;;;7.10;;
4466;SDS011;2246;42.664;23.278;2023-04-29T04:21:07;19.92;;;6.55;;
4466;SDS011;2246;42.664;23.278;2023-04-29T04:23:34;20.20;;;8.85;;
4466;SDS011;2246;42.664;23.278;2023-04-29T04:26:00;20.45;;;6.95;;
4466;SDS011;2246;42.664;23.278;2023-04-29T04:28:26;16.77;;;6.97;;
4466;SDS011;2246;42.664;23.278;2023-04-29T04:30:52;16.83;;;7.15;;
4466;SDS011;2246;42.664;23.278;2023-04-29T04:33:18;19.35;;;6.97;;
4466;SDS011;2246;42.664;23.278;2023-04-29T04:35:45;12.05;;;6.03;;
4466;SDS011;2246;42.664;23.278;2023-04-29T04:38:11;12.18;;;6.45;;
4466;SDS011;2246;42.664;23.278;2023-04-29T04:40:40;12.18;;;6.22;;
4466;SDS011;2246;42.664;23.278;2023-04-29T04:43:07;16.17;;;6.45;;
4466;SDS011;2246;42.664;23.278;2023-04-29T04:45:33;13.93;;;5.88;;
4466;SDS011;2246;42.664;23.278;2023-04-29T04:47:59;15.63;;;7.05;;
4466;SDS011;2246;42.664;23.278;2023-04-29T04:50:28;15.52;;;6.68;;
4466;SDS011;2246;42.664;23.278;2023-04-29T04:52:54;19.92;;;6.18;;
4466;SDS011;2246;42.664;23.278;2023-04-29T04:55:21;18.20;;;7.10;;
4466;SDS011;2246;42.664;23.278;2023-04-29T04:57:47;14.02;;;6.05;;
4466;SDS011;2246;42.664;23.278;2023-04-29T05:00:13;12.38;;;5.95;;
4466;SDS011;2246;42.664;23.278;2023-04-29T05:02:39;13.27;;;6.57;;
4466;SDS011;2246;42.664;23.278;2023-04-29T05:05:06;13.35;;;6.35;;
4466;SDS011;2246;42.664;23.278;2023-04-29T05:07:32;12.38;;;6.25;;
4466;SDS011;2246;42.664;23.278;2023-04-29T05:10:01;15.60;;;7.72;;
4466;SDS011;2246;42.664;23.278;2023-04-29T05:12:28;15.98;;;7.15;;
4466;SDS011;2246;42.664;23.278;2023-04-29T05:14:59;15.85;;;6.82;;
4466;SDS011;2246;42.664;23.278;2023-04-29T05:17:25;11.55;;;6.22;;
4466;SDS011;2246;42.664;23.278;2023-04-29T05:19:51;15.13;;;6.78;;
4466;SDS011;2246;42.664;23.278;2023-04-29T05:22:17;15.23;;;6.57;;
4466;SDS011;2246;42.664;23.278;2023-04-29T05:24:43;13.98;;;6.78;;
4466;SDS011;2246;42.664;23.278;2023-04-29T05:27:12;14.65;;;7.75;;
4466;SDS011;2246;42.664;23.278;2023-04-29T05:29:38;17.42;;;7.93;;
4466;SDS011;2246;42.664;23.278;2023-04-29T05:32:04;14.63;;;7.28;;
4466;SDS011;2246;42.664;23.278;2023-04-29T05:34:30;11.00;;;6.45;;
4466;SDS011;2246;42.664;23.278;2023-04-29T05:36:56;14.02;;;6.97;;
4466;SDS011;2246;42.664;23.278;2023-04-29T05:39:22;15.00;;;7.70;;
4466;SDS011;2246;42.664;23.278;2023-04-29T05:41:48;15.32;;;7.85;;
4466;SDS011;2246;42.664;23.278;2023-04-29T05:44:14;16.80;;;7.45;;
4466;SDS011;2246;42.664;23.278;2023-04-29T05:46:40;15.90;;;7.57;;
4466;SDS011;2246;42.664;23.278;2023-04-29T05:49:07;15.48;;;6.75;;
4466;SDS011;2246;42.664;23.278;2023-04-29T05:51:33;13.23;;;6.93;;
4466;SDS011;2246;42.664;23.278;2023-04-29T05:53:59;24.10;;;8.23;;
4466;SDS011;2246;42.664;23.278;2023-04-29T05:56:25;21.13;;;7.85;;
4466;SDS011;2246;42.664;23.278;2023-04-29T05:58:51;28.48;;;7.72;;
4466;SDS011;2246;42.664;23.278;2023-04-29T06:01:17;13.82;;;7.63;;
4466;SDS011;2246;42.664;23.278;2023-04-29T06:03:43;14.52;;;6.70;;
4466;SDS011;2246;42.664;23.278;2023-04-29T06:06:09;16.25;;;6.60;;
4466;SDS011;2246;42.664;23.278;2023-04-29T06:08:36;13.73;;;7.60;;
4466;SDS011;2246;42.664;23.278;2023-04-29T06:11:02;25.90;;;8.20;;
4466;SDS011;2246;42.664;23.278;2023-04-29T06:13:29;14.68;;;7.93;;
4466;SDS011;2246;42.664;23.278;2023-04-29T06:15:55;23.58;;;8.55;;
4466;SDS011;2246;42.664;23.278;2023-04-29T06:18:21;14.88;;;7.93;;
4466;SDS011;2246;42.664;23.278;2023-04-29T06:20:48;19.85;;;8.43;;
4466;SDS011;2246;42.664;23.278;2023-04-29T06:23:14;22.27;;;8.50;;
4466;SDS011;2246;42.664;23.278;2023-04-29T06:25:40;15.50;;;8.30;;
4466;SDS011;2246;42.664;23.278;2023-04-29T06:28:06;21.73;;;8.52;;
4466;SDS011;2246;42.664;23.278;2023-04-29T06:30:33;22.58;;;9.68;;
4466;SDS011;2246;42.664;23.278;2023-04-29T06:32:59;18.27;;;8.48;;
4466;SDS011;2246;42.664;23.278;2023-04-29T06:35:25;14.77;;;8.18;;
4466;SDS011;2246;42.664;23.278;2023-04-29T06:37:51;20.88;;;8.05;;
4466;SDS011;2246;42.664;23.278;2023-04-29T06:40:17;18.88;;;7.93;;
4466;SDS011;2246;42.664;23.278;2023-04-29T06:42:43;22.20;;;8.43;;
4466;SDS011;2246;42.664;23.278;2023-04-29T06:45:09;14.82;;;7.82;;
4466;SDS011;2246;42.664;23.278;2023-04-29T06:47:35;20.63;;;7.97;;
4466;SDS011;2246;42.664;23.278;2023-04-29T06:50:01;18.85;;;8.80;;
4466;SDS011;2246;42.664;23.278;2023-04-29T06:52:27;21.08;;;9.00;;
4466;SDS011;2246;42.664;23.278;2023-04-29T06:54:53;17.33;;;8.15;;
4466;SDS011;2246;42.664;23.278;2023-04-29T06:57:19;22.88;;;8.82;;
4466;SDS011;2246;42.664;23.278;2023-04-29T06:59:46;25.50;;;10.07;;
4466;SDS011;2246;42.664;23.278;2023-04-29T07:02:12;29.33;;;9.00;;
4466;SDS011;2246;42.664;23.278;2023-04-29T07:04:38;20.70;;;8.50;;
4466;SDS011;2246;42.664;23.278;2023-04-29T07:07:05;18.88;;;9.15;;
4466;SDS011;2246;42.664;23.278;2023-04-29T07:09:31;18.83;;;8.68;;
4466;SDS011;2246;42.664;23.278;2023-04-29T07:11:57;20.13;;;8.90;;
4466;SDS011;2246;42.664;23.278;2023-04-29T07:14:24;16.90;;;8.88;;
4466;SDS011;2246;42.664;23.278;2023-04-29T07:16:53;16.42;;;8.10;;
4466;SDS011;2246;42.664;23.278;2023-04-29T07:19:19;15.80;;;9.10;;
4466;SDS011;2246;42.664;23.278;2023-04-29T07:21:45;17.17;;;8.75;;
4466;SDS011;2246;42.664;23.278;2023-04-29T07:24:11;17.98;;;8.98;;
4466;SDS011;2246;42.664;23.278;2023-04-29T07:26:38;18.58;;;8.57;;
4466;SDS011;2246;42.664;23.278;2023-04-29T07:29:04;22.93;;;8.20;;
4466;SDS011;2246;42.664;23.278;2023-04-29T07:31:30;29.30;;;8.77;;
4466;SDS011;2246;42.664;23.278;2023-04-29T07:33:57;16.02;;;8.55;;
4466;SDS011;2246;42.664;23.278;2023-04-29T07:36:23;17.85;;;8.40;;
4466;SDS011;2246;42.664;23.278;2023-04-29T07:38:49;14.80;;;8.27;;
4466;SDS011;2246;42.664;23.278;2023-04-29T07:41:15;18.05;;;8.15;;
4466;SDS011;2246;42.664;23.278;2023-04-29T07:43:41;25.27;;;7.90;;
4466;SDS011;2246;42.664;23.278;2023-04-29T07:46:07;16.00;;;8.35;;
4466;SDS011;2246;42.664;23.278;2023-04-29T07:48:37;16.75;;;7.70;;
4466;SDS011;2246;42.664;23.278;2023-04-29T07:51:03;16.42;;;8.02;;
4466;SDS011;2246;42.664;23.278;2023-04-29T07:53:29;14.65;;;8.13;;
4466;SDS011;2246;42.664;23.278;2023-04-29T07:55:55;16.42;;;8.55;;
4466;SDS011;2246;42.664;23.278;2023-04-29T07:58:22;17.30;;;8.25;;
4466;SDS011;2246;42.664;23.278;2023-04-29T08:00:48;18.45;;;8.32;;
4466;SDS011;2246;42.664;23.278;2023-04-29T08:03:14;20.63;;;7.40;;
4466;SDS011;2246;42.664;23.278;2023-04-29T08:05:40;14.60;;;7.38;;
4466;SDS011;2246;42.664;23.278;2023-04-29T08:08:07;18.05;;;7.03;;
4466;SDS011;2246;42.664;23.278;2023-04-29T08:10:36;13.93;;;5.95;;
4466;SDS011;2246;42.664;23.278;2023-04-29T08:13:05;14.60;;;7.93;;
4466;SDS011;2246;42.664;23.278;2023-04-29T08:15:31;16.60;;;7.07;;
4466;SDS011;2246;42.664;23.278;2023-04-29T08:17:57;9.20;;;5.13;;
4466;SDS011;2246;42.664;23.278;2023-04-29T08:20:24;15.85;;;7.25;;
4466;SDS011;2246;42.664;23.278;2023-04-29T08:22:50;14.68;;;7.20;;
4466;SDS011;2246;42.664;23.278;2023-04-29T08:25:17;15.52;;;6.80;;
4466;SDS011;2246;42.664;23.278;2023-04-29T08:27:43;15.52;;;7.30;;
4466;SDS011;2246;42.664;23.278;2023-04-29T08:30:10;12.25;;;6.15;;
4466;SDS011;2246;42.664;23.278;2023-04-29T08:32:36;12.85;;;6.70;;
4466;SDS011;2246;42.664;23.278;2023-04-29T08:35:02;15.20;;;6.57;;
4466;SDS011;2246;42.664;23.278;2023-04-29T08:37:28;12.40;;;6.60;;
4466;SDS011;2246;42.664;23.278;2023-04-29T08:39:54;15.00;;;7.30;;
4466;SDS011;2246;42.664;23.278;2023-04-29T08:42:27;12.45;;;6.70;;
4466;SDS011;2246;42.664;23.278;2023-04-29T08:44:56;11.18;;;6.43;;
4466;SDS011;2246;42.664;23.278;2023-04-29T08:47:24;11.70;;;6.63;;
4466;SDS011;2246;42.664;23.278;2023-04-29T08:49:52;12.27;;;6.55;;
4466;SDS011;2246;42.664;23.278;2023-04-29T08:52:18;14.13;;;6.47;;
4466;SDS011;2246;42.664;23.278;2023-04-29T08:54:44;14.70;;;6.50;;
4466;SDS011;2246;42.664;23.278;2023-04-29T08:57:10;12.85;;;5.32;;
4466;SDS011;2246;42.664;23.278;2023-04-29T08:59:37;14.68;;;6.03;;
4466;SDS011;2246;42.664;23.278;2023-04-29T09:02:05;14.68;;;5.97;;
4466;SDS011;2246;42.664;23.278;2023-04-29T09:04:44;10.18;;;6.22;;
4466;SDS011;2246;42.664;23.278;2023-04-29T09:07:12;13.10;;;6.28;;
4466;SDS011;2246;42.664;23.278;2023-04-29T09:09:38;15.00;;;6.20;;
4466;SDS011;2246;42.664;23.278;2023-04-29T09:12:04;11.38;;;5.63;;
4466;SDS011;2246;42.664;23.278;2023-04-29T09:14:31;11.70;;;5.77;;
4466;SDS011;2246;42.664;23.278;2023-04-29T09:16:58;13.48;;;5.63;;
4466;SDS011;2246;42.664;23.278;2023-04-29T09:19:31;11.05;;;5.45;;
4466;SDS011;2246;42.664;23.278;2023-04-29T09:21:58;10.70;;;5.63;;
4466;SDS011;2246;42.664;23.278;2023-04-29T09:24:25;14.93;;;6.53;;
4466;SDS011;2246;42.664;23.278;2023-04-29T09:26:51;14.32;;;6.47;;
4466;SDS011;2246;42.664;23.278;2023-04-29T09:29:17;11.07;;;6.47;;
4466;SDS011;2246;42.664;23.278;2023-04-29T09:31:44;16.38;;;6.25;;
4466;SDS011;2246;42.664;23.278;2023-04-29T09:34:10;13.65;;;5.97;;
4466;SDS011;2246;42.664;23.278;2023-04-29T09:36:44;11.05;;;5.65;;
4466;SDS011;2246;42.664;23.278;2023-04-29T09:39:14;12.68;;;5.78;;
4466;SDS011;2246;42.664;23.278;2023-04-29T09:41:42;16.13;;;6.88;;
4466;SDS011;2246;42.664;23.278;2023-04-29T09:44:23;12.70;;;6.10;;
4466;SDS011;2246;42.664;23.278;2023-04-29T09:49:22;14.88;;;6.28;;
4466;SDS011;2246;42.664;23.278;2023-04-29T09:51:56;16.48;;;6.55;;
4466;SDS011;2246;42.664;23.278;2023-04-29T09:54:23;13.25;;;7.25;;
4466;SDS011;2246;42.664;23.278;2023-04-29T09:56:50;16.10;;;6.25;;
4466;SDS011;2246;42.664;23.278;2023-04-29T09:59:17;14.07;;;6.68;;
4466;SDS011;2246;42.664;23.278;2023-04-29T10:01:44;11.40;;;6.65;;
4466;SDS011;2246;42.664;23.278;2023-04-29T10:04:11;15.85;;;6.15;;
4466;SDS011;2246;42.664;23.278;2023-04-29T10:06:38;16.63;;;5.90;;
4466;SDS011;2246;42.664;23.278;2023-04-29T10:09:06;12.25;;;5.35;;
4466;SDS011;2246;42.664;23.278;2023-04-29T10:11:33;14.18;;;5.22;;
4466;SDS011;2246;42.664;23.278;2023-04-29T10:14:00;7.88;;;4.75;;
4466;SDS011;2246;42.664;23.278;2023-04-29T10:16:28;17.67;;;5.28;;
4466;SDS011;2246;42.664;23.278;2023-04-29T10:18:54;8.23;;;4.53;;
4466;SDS011;2246;42.664;23.278;2023-04-29T10:21:27;11.63;;;5.70;;
4466;SDS011;2246;42.664;23.278;2023-04-29T10:23:57;13.70;;;5.38;;
4466;SDS011;2246;42.664;23.278;2023-04-29T10:26:26;11.73;;;4.65;;
4466;SDS011;2246;42.664;23.278;2023-04-29T10:28:56;12.32;;;4.63;;
4466;SDS011;2246;42.664;23.278;2023-04-29T10:31:27;8.52;;;4.18;;
4466;SDS011;2246;42.664;23.278;2023-04-29T10:33:54;8.80;;;4.40;;
4466;SDS011;2246;42.664;23.278;2023-04-29T10:36:21;14.25;;;3.85;;
4466;SDS011;2246;42.664;23.278;2023-04-29T10:38:50;9.15;;;4.40;;
4466;SDS011;2246;42.664;23.278;2023-04-29T10:41:20;9.77;;;4.47;;
4466;SDS011;2246;42.664;23.278;2023-04-29T10:43:52;13.30;;;4.82;;
4466;SDS011;2246;42.664;23.278;2023-04-29T10:48:45;8.35;;;3.80;;
4466;SDS011;2246;42.664;23.278;2023-04-29T10:51:11;10.45;;;4.45;;
4466;SDS011;2246;42.664;23.278;2023-04-29T10:54:20;7.35;;;3.78;;
4466;SDS011;2246;42.664;23.278;2023-04-29T10:56:40;59.65;;;23.00;;
4466;SDS011;2246;42.664;23.278;2023-04-29T10:59:10;14.05;;;4.97;;
4466;SDS011;2246;42.664;23.278;2023-04-29T11:01:44;10.88;;;4.43;;
4466;SDS011;2246;42.664;23.278;2023-04-29T11:04:10;17.45;;;5.57;;
4466;SDS011;2246;42.664;23.278;2023-04-29T11:14:13;5.82;;;3.15;;
4466;SDS011;2246;42.664;23.278;2023-04-29T11:16:46;5.63;;;2.53;;
4466;SDS011;2246;42.664;23.278;2023-04-29T11:19:14;15.18;;;3.03;;
4466;SDS011;2246;42.664;23.278;2023-04-29T11:21:40;5.53;;;2.53;;
4466;SDS011;2246;42.664;23.278;2023-04-29T11:24:06;8.77;;;1.75;;
4466;SDS011;2246;42.664;23.278;2023-04-29T11:26:33;3.83;;;1.85;;
4466;SDS011;2246;42.664;23.278;2023-04-29T11:28:59;4.35;;;2.97;;
4466;SDS011;2246;42.664;23.278;2023-04-29T11:31:31;3.47;;;2.00;;
4466;SDS011;2246;42.664;23.278;2023-04-29T11:33:58;7.38;;;2.10;;
4466;SDS011;2246;42.664;23.278;2023-04-29T11:36:24;10.88;;;3.25;;
4466;SDS011;2246;42.664;23.278;2023-04-29T11:38:51;5.10;;;1.85;;
4466;SDS011;2246;42.664;23.278;2023-04-29T11:41:18;5.75;;;2.42;;
4466;SDS011;2246;42.664;23.278;2023-04-29T11:43:45;6.45;;;2.22;;
4466;SDS011;2246;42.664;23.278;2023-04-29T11:46:12;4.70;;;2.42;;
4466;SDS011;2246;42.664;23.278;2023-04-29T11:48:44;4.18;;;2.20;;
4466;SDS011;2246;42.664;23.278;2023-04-29T11:51:14;3.60;;;1.80;;
4466;SDS011;2246;42.664;23.278;2023-04-29T11:53:41;5.30;;;2.17;;
4466;SDS011;2246;42.664;23.278;2023-04-29T11:56:07;4.50;;;2.10;;
4466;SDS011;2246;42.664;23.278;2023-04-29T11:58:34;5.40;;;1.80;;
4466;SDS011;2246;42.664;23.278;2023-04-29T12:01:01;7.32;;;2.10;;
4466;SDS011;2246;42.664;23.278;2023-04-29T12:03:28;5.43;;;2.10;;
4466;SDS011;2246;42.664;23.278;2023-04-29T12:05:55;8.35;;;2.40;;
4466;SDS011;2246;42.664;23.278;2023-04-29T12:08:21;3.85;;;1.90;;
4466;SDS011;2246;42.664;23.278;2023-04-29T12:10:48;4.63;;;1.50;;
4466;SDS011;2246;42.664;23.278;2023-04-29T12:13:17;3.42;;;2.00;;
4466;SDS011;2246;42.664;23.278;2023-04-29T12:15:44;3.88;;;2.03;;
4466;SDS011;2246;42.664;23.278;2023-04-29T12:18:10;11.23;;;1.65;;
4466;SDS011;2246;42.664;23.278;2023-04-29T12:20:37;3.65;;;1.80;;
4466;SDS011;2246;42.664;23.278;2023-04-29T12:23:22;1.88;;;1.42;;
4466;SDS011;2246;42.664;23.278;2023-04-29T12:25:49;4.63;;;2.00;;
4466;SDS011;2246;42.664;23.278;2023-04-29T12:28:16;4.35;;;1.98;;
4466;SDS011;2246;42.664;23.278;2023-04-29T12:30:49;6.07;;;2.00;;
4466;SDS011;2246;42.664;23.278;2023-04-29T12:33:22;6.35;;;1.73;;
4466;SDS011;2246;42.664;23.278;2023-04-29T12:35:51;4.78;;;1.90;;
4466;SDS011;2246;42.664;23.278;2023-04-29T12:38:21;4.38;;;1.65;;
4466;SDS011;2246;42.664;23.278;2023-04-29T12:40:47;3.42;;;1.73;;
4466;SDS011;2246;42.664;23.278;2023-04-29T12:43:15;3.85;;;1.50;;
4466;SDS011;2246;42.664;23.278;2023-04-29T12:45:41;3.50;;;1.52;;
4466;SDS011;2246;42.664;23.278;2023-04-29T12:48:07;5.80;;;1.80;;
4466;SDS011;2246;42.664;23.278;2023-04-29T12:50:34;4.70;;;1.50;;
4466;SDS011;2246;42.664;23.278;2023-04-29T12:53:02;4.70;;;1.40;;
4466;SDS011;2246;42.664;23.278;2023-04-29T12:55:28;7.88;;;3.03;;
4466;SDS011;2246;42.664;23.278;2023-04-29T12:57:55;2.67;;;1.30;;
4466;SDS011;2246;42.664;23.278;2023-04-29T13:00:21;3.80;;;1.50;;
4466;SDS011;2246;42.664;23.278;2023-04-29T13:02:47;5.10;;;1.40;;
4466;SDS011;2246;42.664;23.278;2023-04-29T13:05:13;5.85;;;1.60;;
4466;SDS011;2246;42.664;23.278;2023-04-29T13:07:39;4.45;;;1.63;;
4466;SDS011;2246;42.664;23.278;2023-04-29T13:10:05;5.22;;;1.77;;
4466;SDS011;2246;42.664;23.278;2023-04-29T13:12:32;2.65;;;1.30;;
4466;SDS011;2246;42.664;23.278;2023-04-29T13:14:58;4.25;;;1.67;;
4466;SDS011;2246;42.664;23.278;2023-04-29T13:17:24;4.07;;;1.77;;
4466;SDS011;2246;42.664;23.278;2023-04-29T13:19:50;5.53;;;1.70;;
4466;SDS011;2246;42.664;23.278;2023-04-29T13:22:16;2.33;;;1.40;;
4466;SDS011;2246;42.664;23.278;2023-04-29T13:24:42;2.97;;;1.65;;
4466;SDS011;2246;42.664;23.278;2023-04-29T13:27:08;2.88;;;1.40;;
4466;SDS011;2246;42.664;23.278;2023-04-29T13:29:35;2.55;;;1.55;;
4466;SDS011;2246;42.664;23.278;2023-04-29T13:32:01;4.30;;;1.55;;
4466;SDS011;2246;42.664;23.278;2023-04-29T13:34:27;2.95;;;1.63;;
4466;SDS011;2246;42.664;23.278;2023-04-29T13:36:53;5.35;;;1.70;;
4466;SDS011;2246;42.664;23.278;2023-04-29T13:39:19;2.80;;;1.50;;
4466;SDS011;2246;42.664;23.278;2023-04-29T13:41:47;3.03;;;2.05;;
4466;SDS011;2246;42.664;23.278;2023-04-29T13:44:13;2.97;;;1.70;;
4466;SDS011;2246;42.664;23.278;2023-04-29T13:46:39;3.33;;;1.23;;
4466;SDS011;2246;42.664;23.278;2023-04-29T13:49:05;3.58;;;1.27;;
4466;SDS011;2246;42.664;23.278;2023-04-29T13:51:31;2.88;;;1.77;;
4466;SDS011;2246;42.664;23.278;2023-04-29T13:53:57;3.28;;;1.48;;
4466;SDS011;2246;42.664;23.278;2023-04-29T13:56:23;4.55;;;1.80;;
4466;SDS011;2246;42.664;23.278;2023-04-29T13:58:50;3.25;;;1.80;;
4466;SDS011;2246;42.664;23.278;2023-04-29T14:01:17;2.83;;;1.70;;
4466;SDS011;2246;42.664;23.278;2023-04-29T14:03:43;3.28;;;1.67;;
4466;SDS011;2246;42.664;23.278;2023-04-29T14:06:10;5.10;;;1.98;;
4466;SDS011;2246;42.664;23.278;2023-04-29T14:08:36;5.70;;;1.92;;
4466;SDS011;2246;42.664;23.278;2023-04-29T14:11:02;2.00;;;1.50;;
4466;SDS011;2246;42.664;23.278;2023-04-29T14:13:28;3.55;;;1.55;;
4466;SDS011;2246;42.664;23.278;2023-04-29T14:15:54;3.47;;;1.90;;
4466;SDS011;2246;42.664;23.278;2023-04-29T14:18:20;2.97;;;1.52;;
4466;SDS011;2246;42.664;23.278;2023-04-29T14:20:46;2.80;;;1.50;;
4466;SDS011;2246;42.664;23.278;2023-04-29T14:23:12;2.65;;;1.80;;
4466;SDS011;2246;42.664;23.278;2023-04-29T14:25:38;4.60;;;1.75;;
4466;SDS011;2246;42.664;23.278;2023-04-29T14:28:05;3.17;;;1.50;;
4466;SDS011;2246;42.664;23.278;2023-04-29T14:30:31;3.70;;;1.73;;
4466;SDS011;2246;42.664;23.278;2023-04-29T14:32:57;2.33;;;1.90;;
4466;SDS011;2246;42.664;23.278;2023-04-29T14:35:23;4.35;;;1.95;;
4466;SDS011;2246;42.664;23.278;2023-04-29T14:37:49;4.57;;;2.35;;
4466;SDS011;2246;42.664;23.278;2023-04-29T14:40:15;3.15;;;2.08;;
4466;SDS011;2246;42.664;23.278;2023-04-29T14:42:41;4.32;;;1.95;;
4466;SDS011;2246;42.664;23.278;2023-04-29T14:45:08;3.53;;;2.25;;
4466;SDS011;2246;42.664;23.278;2023-04-29T14:47:34;4.97;;;2.40;;
4466;SDS011;2246;42.664;23.278;2023-04-29T14:50:00;5.72;;;1.95;;
4466;SDS011;2246;42.664;23.278;2023-04-29T14:52:26;3.33;;;2.20;;
4466;SDS011;2246;42.664;23.278;2023-04-29T14:54:52;6.35;;;2.88;;
4466;SDS011;2246;42.664;23.278;2023-04-29T14:57:18;12.57;;;2.53;;
4466;SDS011;2246;42.664;23.278;2023-04-29T14:59:45;5.22;;;2.45;;
4466;SDS011;2246;42.664;23.278;2023-04-29T15:02:11;7.28;;;2.45;;
4466;SDS011;2246;42.664;23.278;2023-04-29T15:04:37;4.63;;;2.35;;
4466;SDS011;2246;42.664;23.278;2023-04-29T15:07:09;6.00;;;2.67;;
4466;SDS011;2246;42.664;23.278;2023-04-29T15:09:35;6.30;;;1.92;;
4466;SDS011;2246;42.664;23.278;2023-04-29T15:12:02;3.78;;;1.90;;
4466;SDS011;2246;42.664;23.278;2023-04-29T15:14:28;5.38;;;2.10;;
4466;SDS011;2246;42.664;23.278;2023-04-29T15:16:54;3.88;;;1.95;;
4466;SDS011;2246;42.664;23.278;2023-04-29T15:19:20;4.82;;;2.53;;
4466;SDS011;2246;42.664;23.278;2023-04-29T15:21:49;9.68;;;2.65;;